Time;durP1;ratioP1;P1;durP2;ratioP2;P2;SDS_P1;SDS_P2;PMS_P1;PMS_P2;Temp;Humidity;BMP_temperature;BMP_pressure;BME280_temperature;BME280_humidity;BME280_pressure;Samples;Min_cycle;Max_cycle;Signal;HPM_P1;HPM_P2
2022/05/01 00:01:01;;;;;;;;;;;7.40;99.90;;;;;;5027178;28;19952;-73
2022/05/01 00:03:36;;;;;;;;;;;7.40;99.90;;;;;;5006604;28;19932;-75
2022/05/01 00:06:08;;;;;;;;;;;7.40;99.90;;;;;;5011210;28;19925;-73
2022/05/01 00:08:37;;;;;;;;;;;7.40;99.90;;;;;;5019903;28;20274;-73
2022/05/01 00:11:09;;;;;;;;;;;7.40;99.90;;;;;;5024202;28;19926;-73
2022/05/01 00:13:42;;;;;;;;;;;7.40;99.90;;;;;;5019126;28;20297;-73
2022/05/01 00:16:13;;;;;;;;;;;7.50;99.90;;;;;;5026814;28;19925;-73
2022/05/01 00:18:45;;;;;;;;;;;7.50;99.90;;;;;;5028955;28;19932;-73
2022/05/01 00:21:16;;;;;;;;;;;7.50;99.90;;;;;;5024215;28;19933;-73
2022/05/01 00:23:48;;;;;;;;;;;7.40;99.90;;;;;;5009434;28;19932;-73
2022/05/01 00:26:20;;;;;;;;;;;7.40;99.90;;;;;;5020668;28;19929;-72
2022/05/01 00:28:51;;;;;;;;;;;7.40;99.90;;;;;;5025100;28;19925;-73
2022/05/01 00:31:23;;;;;;;;;;;7.30;99.90;;;;;;5030554;28;20460;-74
2022/05/01 00:36:45;;;;;;;;;;;7.20;99.90;;;;;;5016567;28;19932;-73
2022/05/01 00:39:17;;;;;;;;;;;7.20;99.90;;;;;;5014995;28;20020;-73
2022/05/01 00:41:48;;;;;;;;;;;7.20;99.90;;;;;;5028157;28;19980;-73
2022/05/01 00:44:21;;;;;;;;;;;7.20;99.90;;;;;;5038310;28;19933;-73
2022/05/01 00:46:53;;;;;;;;;;;7.20;99.90;;;;;;5007176;28;19926;-73
2022/05/01 00:49:24;;;;;;;;;;;7.10;99.90;;;;;;5021254;28;20300;-73
2022/05/01 00:51:58;;;;;;;;;;;7.10;99.90;;;;;;5025870;28;20342;-73
2022/05/01 00:54:30;;;;;;;;;;;7.20;99.90;;;;;;5025077;28;19925;-73
2022/05/01 00:57:03;;;;;;;;;;;7.10;99.90;;;;;;5019944;28;19929;-73
2022/05/01 00:59:36;;;;;;;;;;;7.10;99.90;;;;;;5015309;28;20408;-73
2022/05/01 01:02:08;;;;;;;;;;;7.10;99.90;;;;;;5022843;28;19932;-73
2022/05/01 01:04:39;;;;;;;;;;;7.00;99.90;;;;;;5020508;28;19944;-73
2022/05/01 01:07:11;;;;;;;;;;;7.00;99.90;;;;;;5024204;28;20381;-73
2022/05/01 01:09:42;;;;;;;;;;;6.90;99.90;;;;;;5018813;28;20404;-73
2022/05/01 01:15:11;;;;;;;;;;;6.80;99.90;;;;;;5024289;28;19935;-73
2022/05/01 01:17:46;;;;;;;;;;;6.80;99.90;;;;;;5019779;28;19929;-73
2022/05/01 01:20:21;;;;;;;;;;;6.80;99.90;;;;;;5019924;28;19937;-73
2022/05/01 01:22:54;;;;;;;;;;;6.80;99.90;;;;;;5022552;28;20412;-73
2022/05/01 01:25:27;;;;;;;;;;;6.80;99.90;;;;;;5023455;28;19937;-73
2022/05/01 01:28:02;;;;;;;;;;;6.80;99.90;;;;;;5026228;28;20389;-73
2022/05/01 01:33:20;;;;;;;;;;;6.80;99.90;;;;;;5019154;28;19926;-73
2022/05/01 01:35:52;;;;;;;;;;;6.70;99.90;;;;;;5022512;28;20313;-73
2022/05/01 01:38:19;;;;;;;;;;;6.70;99.90;;;;;;5021889;28;19926;-73
2022/05/01 01:40:52;;;;;;;;;;;6.60;99.90;;;;;;5024119;28;19956;-73
2022/05/01 01:43:25;;;;;;;;;;;6.60;99.90;;;;;;5019358;28;19932;-73
2022/05/01 01:45:57;;;;;;;;;;;6.60;99.90;;;;;;5019315;28;19932;-73
2022/05/01 01:48:29;;;;;;;;;;;6.50;99.90;;;;;;5020314;28;19966;-71
2022/05/01 01:51:02;;;;;;;;;;;6.50;99.90;;;;;;5022090;28;19932;-71
2022/05/01 01:53:35;;;;;;;;;;;6.40;99.90;;;;;;5023526;28;19925;-70
2022/05/01 01:56:10;;;;;;;;;;;6.30;99.90;;;;;;5024844;28;19932;-71
2022/05/01 01:58:42;;;;;;;;;;;6.30;99.90;;;;;;5020793;28;19932;-70
2022/05/01 02:01:14;;;;;;;;;;;6.20;99.90;;;;;;5018913;28;19933;-70
2022/05/01 02:03:45;;;;;;;;;;;6.10;99.90;;;;;;5026685;28;19992;-71
2022/05/01 02:06:18;;;;;;;;;;;6.00;99.90;;;;;;5020104;28;19929;-70
2022/05/01 02:08:50;;;;;;;;;;;6.00;99.90;;;;;;5023287;28;19960;-72
2022/05/01 02:11:21;;;;;;;;;;;6.00;99.90;;;;;;5006583;28;19931;-73
2022/05/01 02:13:53;;;;;;;;;;;6.00;99.90;;;;;;5027559;28;20000;-72
2022/05/01 02:16:25;;;;;;;;;;;5.90;99.90;;;;;;5020447;28;19925;-72
2022/05/01 02:18:52;;;;;;;;;;;5.80;99.90;;;;;;5020999;28;20373;-72
2022/05/01 02:21:36;;;;;;;;;;;5.70;99.90;;;;;;5021466;28;19926;-72
2022/05/01 02:24:04;;;;;;;;;;;5.70;99.90;;;;;;5019860;28;19925;-72
2022/05/01 02:26:36;;;;;;;;;;;5.70;99.90;;;;;;5019463;28;19999;-72
2022/05/01 02:29:09;;;;;;;;;;;5.70;99.90;;;;;;5020184;28;19933;-72
2022/05/01 02:31:42;;;;;;;;;;;5.70;99.90;;;;;;5021013;28;20332;-72
2022/05/01 02:34:10;;;;;;;;;;;5.70;99.90;;;;;;5021221;28;20031;-72
2022/05/01 02:36:41;;;;;;;;;;;5.70;99.90;;;;;;5017098;28;20009;-72
2022/05/01 02:39:13;;;;;;;;;;;5.70;99.90;;;;;;5019653;28;19925;-72
2022/05/01 02:41:45;;;;;;;;;;;5.70;99.90;;;;;;5017724;28;20303;-72
2022/05/01 02:44:11;;;;;;;;;;;5.70;99.90;;;;;;5021330;28;19933;-72
2022/05/01 02:46:43;;;;;;;;;;;5.70;99.90;;;;;;5017711;28;19925;-72
2022/05/01 02:49:11;;;;;;;;;;;5.70;99.90;;;;;;5014832;28;19926;-72
2022/05/01 02:51:42;;;;;;;;;;;5.60;99.90;;;;;;5019699;28;19929;-72
2022/05/01 02:54:14;;;;;;;;;;;5.60;99.90;;;;;;5018360;28;19925;-72
2022/05/01 02:56:49;;;;;;;;;;;5.60;99.90;;;;;;5020394;28;19964;-72
2022/05/01 02:59:20;;;;;;;;;;;5.60;99.90;;;;;;5021068;28;19929;-72
2022/05/01 03:01:52;;;;;;;;;;;5.50;99.90;;;;;;5005446;28;19937;-73
2022/05/01 03:04:24;;;;;;;;;;;5.50;99.90;;;;;;5019228;28;19936;-72
2022/05/01 03:06:56;;;;;;;;;;;5.40;99.90;;;;;;5028247;28;19935;-72
2022/05/01 03:09:28;;;;;;;;;;;5.30;99.90;;;;;;5022114;28;19935;-72
2022/05/01 03:11:54;;;;;;;;;;;5.20;99.90;;;;;;5022420;28;19929;-73
2022/05/01 03:14:26;;;;;;;;;;;5.00;99.90;;;;;;5026801;28;19925;-72
2022/05/01 03:16:52;;;;;;;;;;;5.00;99.90;;;;;;5021832;28;19932;-72
2022/05/01 03:22:10;;;;;;;;;;;4.80;99.90;;;;;;5018610;28;20337;-72
2022/05/01 03:24:42;;;;;;;;;;;4.80;99.90;;;;;;5019214;28;19929;-72
2022/05/01 03:27:14;;;;;;;;;;;4.70;99.90;;;;;;5024002;28;19925;-72
2022/05/01 03:30:15;;;;;;;;;;;4.70;99.90;;;;;;5022991;28;20332;-72
2022/05/01 03:32:37;;;;;;;;;;;4.70;99.90;;;;;;5020079;28;20269;-72
2022/05/01 03:35:08;;;;;;;;;;;4.70;99.90;;;;;;4985581;28;21325;-72
2022/05/01 03:37:41;;;;;;;;;;;4.60;99.90;;;;;;4997608;28;19933;-72
2022/05/01 03:40:15;;;;;;;;;;;4.60;99.90;;;;;;5006784;28;19933;-72
2022/05/01 03:42:45;;;;;;;;;;;4.50;99.90;;;;;;5005617;28;20322;-72
2022/05/01 03:45:16;;;;;;;;;;;4.50;99.90;;;;;;5003115;28;19926;-72
2022/05/01 03:47:48;;;;;;;;;;;4.50;99.90;;;;;;5006677;28;19932;-72
2022/05/01 03:50:20;;;;;;;;;;;4.50;99.90;;;;;;5007502;28;19926;-70
2022/05/01 03:52:47;;;;;;;;;;;4.50;99.90;;;;;;5002332;28;19926;-70
2022/05/01 03:55:18;;;;;;;;;;;4.50;99.90;;;;;;5002926;28;19932;-70
2022/05/01 03:57:50;;;;;;;;;;;4.50;99.90;;;;;;5011040;28;19925;-70
2022/05/01 04:00:21;;;;;;;;;;;4.40;99.90;;;;;;5002949;28;19929;-69
2022/05/01 04:02:48;;;;;;;;;;;4.50;99.90;;;;;;5002331;28;19925;-70
2022/05/01 04:05:20;;;;;;;;;;;4.50;99.90;;;;;;5009557;28;19926;-69
2022/05/01 04:07:52;;;;;;;;;;;4.60;99.90;;;;;;5004595;28;19942;-70
2022/05/01 04:10:23;;;;;;;;;;;4.60;99.90;;;;;;4999806;28;20869;-69
2022/05/01 04:12:55;;;;;;;;;;;4.60;99.90;;;;;;5002064;28;19992;-70
2022/05/01 04:15:27;;;;;;;;;;;4.60;99.90;;;;;;5015428;28;19925;-70
2022/05/01 04:18:04;;;;;;;;;;;4.50;99.90;;;;;;4985354;28;20013;-70
2022/05/01 04:20:32;;;;;;;;;;;4.40;99.90;;;;;;5002392;28;19925;-70
2022/05/01 04:23:05;;;;;;;;;;;4.30;99.90;;;;;;5006103;28;19932;-70
2022/05/01 04:25:37;;;;;;;;;;;4.30;99.90;;;;;;5007453;28;19932;-70
2022/05/01 04:28:10;;;;;;;;;;;4.30;99.90;;;;;;5009611;28;20028;-70
2022/05/01 04:30:41;;;;;;;;;;;4.20;99.90;;;;;;5006786;28;19930;-70
2022/05/01 04:33:14;;;;;;;;;;;4.20;99.90;;;;;;5005305;28;19926;-70
2022/05/01 04:35:47;;;;;;;;;;;4.20;99.90;;;;;;5005617;28;19926;-70
2022/05/01 04:38:19;;;;;;;;;;;4.20;99.90;;;;;;5003799;28;19926;-70
2022/05/01 04:40:52;;;;;;;;;;;4.20;99.90;;;;;;4997179;28;19937;-70
2022/05/01 04:43:25;;;;;;;;;;;4.20;99.90;;;;;;5004696;28;19925;-70
2022/05/01 04:45:58;;;;;;;;;;;4.30;99.90;;;;;;5004349;28;19996;-70
2022/05/01 04:48:30;;;;;;;;;;;4.40;99.90;;;;;;5002577;28;19932;-71
2022/05/01 04:51:01;;;;;;;;;;;4.40;99.90;;;;;;5006597;28;19930;-70
2022/05/01 04:53:33;;;;;;;;;;;4.40;99.90;;;;;;5001540;28;20297;-70
2022/05/01 04:58:59;;;;;;;;;;;4.40;99.90;;;;;;4984230;28;20338;-70
2022/05/01 05:01:26;;;;;;;;;;;4.50;99.90;;;;;;5002943;28;19926;-70
2022/05/01 05:03:58;;;;;;;;;;;4.50;99.90;;;;;;5005990;28;19925;-70
2022/05/01 05:06:30;;;;;;;;;;;4.60;99.90;;;;;;5000332;28;19935;-71
2022/05/01 05:11:52;;;;;;;;;;;4.70;99.90;;;;;;5007216;28;19938;-73
2022/05/01 05:14:23;;;;;;;;;;;4.70;99.90;;;;;;5006428;28;19926;-72
2022/05/01 05:16:51;;;;;;;;;;;4.80;99.90;;;;;;5007049;28;19937;-74
2022/05/01 05:19:23;;;;;;;;;;;4.80;99.90;;;;;;5000918;28;20417;-72
2022/05/01 05:21:49;;;;;;;;;;;4.70;99.90;;;;;;5000532;28;19960;-72
2022/05/01 05:24:21;;;;;;;;;;;4.70;99.90;;;;;;5004405;28;20272;-73
2022/05/01 05:26:52;;;;;;;;;;;4.70;99.90;;;;;;5003809;28;20413;-72
2022/05/01 05:29:19;;;;;;;;;;;4.60;99.90;;;;;;5004404;28;19933;-72
2022/05/01 05:31:50;;;;;;;;;;;4.50;99.90;;;;;;5001843;28;19929;-72
2022/05/01 05:34:22;;;;;;;;;;;4.50;99.90;;;;;;5003053;28;19937;-72
2022/05/01 05:36:53;;;;;;;;;;;4.50;99.90;;;;;;5003004;28;20560;-72
2022/05/01 05:39:25;;;;;;;;;;;4.50;99.90;;;;;;5002595;28;19952;-72
2022/05/01 05:41:57;;;;;;;;;;;4.50;99.90;;;;;;4996862;28;19929;-72
2022/05/01 05:44:28;;;;;;;;;;;4.40;99.90;;;;;;4992982;28;19929;-72
2022/05/01 05:46:55;;;;;;;;;;;4.50;99.90;;;;;;5001532;28;19929;-73
2022/05/01 05:49:27;;;;;;;;;;;4.50;99.90;;;;;;5008511;28;19926;-73
2022/05/01 05:52:00;;;;;;;;;;;4.60;99.90;;;;;;5000929;28;19948;-73
2022/05/01 05:54:32;;;;;;;;;;;4.60;99.90;;;;;;5007537;28;19925;-73
2022/05/01 05:57:04;;;;;;;;;;;4.60;99.90;;;;;;4999563;28;20312;-73
2022/05/01 05:59:35;;;;;;;;;;;4.60;99.90;;;;;;5010059;28;20318;-72
2022/05/01 06:02:07;;;;;;;;;;;4.60;99.90;;;;;;5004285;28;19932;-73
2022/05/01 06:04:41;;;;;;;;;;;4.70;99.90;;;;;;5006192;28;20309;-72
2022/05/01 06:07:07;;;;;;;;;;;4.70;99.90;;;;;;5006470;28;19933;-73
2022/05/01 06:09:39;;;;;;;;;;;4.80;99.90;;;;;;5004296;28;19929;-73
2022/05/01 06:12:10;;;;;;;;;;;4.90;99.90;;;;;;5005248;28;19945;-73
2022/05/01 06:14:44;;;;;;;;;;;5.00;99.90;;;;;;5005290;28;19929;-73
2022/05/01 06:17:16;;;;;;;;;;;5.10;99.90;;;;;;5007300;28;20036;-72
2022/05/01 06:19:42;;;;;;;;;;;5.20;99.90;;;;;;5009128;28;19936;-73
2022/05/01 06:22:14;;;;;;;;;;;5.30;99.90;;;;;;5004284;28;19926;-72
2022/05/01 06:24:45;;;;;;;;;;;5.30;99.90;;;;;;5008763;28;19926;-72
2022/05/01 06:27:17;;;;;;;;;;;5.40;99.90;;;;;;5005379;28;19929;-73
2022/05/01 06:29:50;;;;;;;;;;;5.40;99.90;;;;;;5007005;28;21561;-72
2022/05/01 06:32:22;;;;;;;;;;;5.60;99.90;;;;;;4985592;28;19929;-73
2022/05/01 06:34:54;;;;;;;;;;;5.60;99.90;;;;;;5007701;28;19925;-73
2022/05/01 06:37:20;;;;;;;;;;;5.70;99.90;;;;;;5005040;28;19933;-73
2022/05/01 06:39:52;;;;;;;;;;;5.80;99.90;;;;;;5004891;28;19930;-73
2022/05/01 06:42:23;;;;;;;;;;;5.90;99.90;;;;;;5003742;28;19925;-73
2022/05/01 06:44:50;;;;;;;;;;;6.00;99.90;;;;;;5007201;28;19932;-73
2022/05/01 06:47:22;;;;;;;;;;;6.10;99.90;;;;;;5008263;28;19926;-73
2022/05/01 06:49:48;;;;;;;;;;;6.10;99.90;;;;;;5006406;28;20008;-73
2022/05/01 06:52:23;;;;;;;;;;;6.20;99.90;;;;;;5006460;28;20583;-73
2022/05/01 06:54:54;;;;;;;;;;;6.30;99.90;;;;;;5007771;28;19926;-73
2022/05/01 06:57:26;;;;;;;;;;;6.40;99.90;;;;;;5006587;28;19932;-73
2022/05/01 06:59:58;;;;;;;;;;;6.50;99.90;;;;;;5005963;28;19988;-73
2022/05/01 07:02:30;;;;;;;;;;;6.70;99.90;;;;;;5001220;28;19933;-73
2022/05/01 07:05:02;;;;;;;;;;;6.80;99.90;;;;;;5008630;28;19929;-73
2022/05/01 07:07:33;;;;;;;;;;;7.00;99.90;;;;;;5006800;28;20397;-73
2022/05/01 07:10:06;;;;;;;;;;;7.10;99.90;;;;;;5006745;28;19932;-73
2022/05/01 07:12:37;;;;;;;;;;;7.30;99.90;;;;;;5003541;28;19925;-73
2022/05/01 07:15:09;;;;;;;;;;;7.30;99.90;;;;;;5008843;28;19933;-73
2022/05/01 07:17:42;;;;;;;;;;;7.40;99.90;;;;;;4993753;28;19933;-73
2022/05/01 07:20:09;;;;;;;;;;;7.40;99.90;;;;;;5012438;28;20398;-73
2022/05/01 07:22:41;;;;;;;;;;;7.40;99.90;;;;;;5005095;28;20028;-73
2022/05/01 07:25:13;;;;;;;;;;;7.50;99.90;;;;;;5010341;28;19933;-72
2022/05/01 07:27:44;;;;;;;;;;;7.60;99.90;;;;;;4999160;28;19929;-72
2022/05/01 07:30:16;;;;;;;;;;;7.60;99.90;;;;;;5010100;28;19952;-72
2022/05/01 07:32:47;;;;;;;;;;;7.60;99.90;;;;;;5006089;28;20382;-72
2022/05/01 07:35:19;;;;;;;;;;;7.70;99.90;;;;;;5008687;28;19971;-71
2022/05/01 07:37:51;;;;;;;;;;;7.80;99.90;;;;;;5011955;28;20306;-71
2022/05/01 07:40:24;;;;;;;;;;;7.90;99.90;;;;;;4991254;28;20329;-71
2022/05/01 07:42:55;;;;;;;;;;;8.10;99.90;;;;;;5008342;28;19929;-73
2022/05/01 07:45:27;;;;;;;;;;;8.20;99.90;;;;;;5007994;28;19936;-73
2022/05/01 07:47:59;;;;;;;;;;;8.30;99.90;;;;;;5006777;28;19925;-73
2022/05/01 07:50:31;;;;;;;;;;;8.30;99.90;;;;;;4988862;28;19948;-73
2022/05/01 07:52:57;;;;;;;;;;;8.30;99.90;;;;;;4998705;28;19926;-73
2022/05/01 07:55:29;;;;;;;;;;;8.30;99.90;;;;;;5012025;28;19945;-73
2022/05/01 07:57:55;;;;;;;;;;;8.20;99.90;;;;;;5012579;28;19933;-73
2022/05/01 08:00:27;;;;;;;;;;;8.20;99.90;;;;;;5007704;28;20333;-73
2022/05/01 08:05:49;;;;;;;;;;;8.30;99.90;;;;;;5001361;28;19944;-73
2022/05/01 08:08:20;;;;;;;;;;;8.40;99.90;;;;;;4992250;28;19936;-73
2022/05/01 08:10:52;;;;;;;;;;;8.40;99.90;;;;;;4998574;28;19936;-73
2022/05/01 08:13:19;;;;;;;;;;;8.50;99.90;;;;;;5001437;28;19925;-73
2022/05/01 08:15:50;;;;;;;;;;;8.60;99.90;;;;;;5007222;28;20010;-73
2022/05/01 08:21:07;;;;;;;;;;;8.80;99.90;;;;;;4997045;28;19932;-73
2022/05/01 08:23:40;;;;;;;;;;;8.80;99.90;;;;;;5002465;28;19964;-73
2022/05/01 08:26:13;;;;;;;;;;;8.90;99.90;;;;;;5003988;28;19952;-71
2022/05/01 08:28:45;;;;;;;;;;;9.10;99.90;;;;;;5006430;28;20378;-71
2022/05/01 08:31:17;;;;;;;;;;;9.30;99.90;;;;;;4995571;28;19926;-71
2022/05/01 08:33:44;;;;;;;;;;;9.40;99.90;;;;;;5004856;28;20345;-71
2022/05/01 08:36:17;;;;;;;;;;;9.50;99.90;;;;;;5009577;28;19925;-71
2022/05/01 08:38:48;;;;;;;;;;;9.70;99.90;;;;;;5010884;28;19925;-71
2022/05/01 08:41:22;;;;;;;;;;;9.80;99.90;;;;;;5007611;28;19925;-71
2022/05/01 08:43:55;;;;;;;;;;;9.90;99.90;;;;;;5002457;28;19951;-71
2022/05/01 08:46:36;;;;;;;;;;;10.10;99.90;;;;;;5007641;28;19926;-71
2022/05/01 08:49:08;;;;;;;;;;;10.20;99.90;;;;;;4995738;28;20462;-71
2022/05/01 08:51:40;;;;;;;;;;;10.30;99.90;;;;;;5000590;28;20390;-71
2022/05/01 08:54:13;;;;;;;;;;;10.30;99.90;;;;;;5002705;28;19925;-71
2022/05/01 08:56:45;;;;;;;;;;;10.40;99.90;;;;;;4999746;28;19932;-71
2022/05/01 08:59:17;;;;;;;;;;;10.50;99.90;;;;;;5002902;28;19952;-71
2022/05/01 09:01:45;;;;;;;;;;;10.50;99.90;;;;;;4996618;28;19926;-71
2022/05/01 09:04:16;;;;;;;;;;;10.50;99.90;;;;;;5005079;28;20317;-73
2022/05/01 09:06:48;;;;;;;;;;;10.60;99.90;;;;;;5000770;28;19926;-73
2022/05/01 09:09:21;;;;;;;;;;;10.60;99.90;;;;;;4999234;28;19925;-73
2022/05/01 09:14:43;;;;;;;;;;;10.60;99.90;;;;;;5003208;28;20394;-73
2022/05/01 09:17:19;;;;;;;;;;;10.70;99.90;;;;;;5000077;28;19930;-73
2022/05/01 09:19:53;;;;;;;;;;;10.80;99.90;;;;;;4984483;28;19930;-73
2022/05/01 09:22:25;;;;;;;;;;;10.90;99.90;;;;;;5001881;28;19932;-73
2022/05/01 09:25:13;;;;;;;;;;;11.00;99.90;;;;;;4996349;28;19937;-73
2022/05/01 09:27:45;;;;;;;;;;;11.00;99.90;;;;;;5000467;28;19933;-73
2022/05/01 09:30:19;;;;;;;;;;;11.10;99.90;;;;;;5009884;28;20296;-73
2022/05/01 09:32:54;;;;;;;;;;;11.20;99.90;;;;;;4998799;28;19934;-73
2022/05/01 09:35:27;;;;;;;;;;;11.20;99.90;;;;;;5003669;28;19925;-73
2022/05/01 09:38:12;;;;;;;;;;;11.30;99.90;;;;;;5005279;28;19933;-73
2022/05/01 09:40:44;;;;;;;;;;;11.50;99.90;;;;;;5005672;28;20398;-73
2022/05/01 09:43:35;;;;;;;;;;;11.60;99.90;;;;;;4992147;28;19932;-73
2022/05/01 09:46:14;;;;;;;;;;;11.60;99.90;;;;;;5005128;28;19941;-74
2022/05/01 09:49:05;;;;;;;;;;;11.70;99.90;;;;;;4991375;28;20016;-72
2022/05/01 09:51:47;;;;;;;;;;;11.80;99.90;;;;;;5006196;28;19925;-72
2022/05/01 09:54:41;;;;;;;;;;;11.80;99.90;;;;;;5006301;28;19987;-73
2022/05/01 09:57:22;;;;;;;;;;;11.90;99.90;;;;;;5006927;28;19936;-73
2022/05/01 09:59:53;;;;;;;;;;;11.90;99.90;;;;;;5020059;28;19960;-73
2022/05/01 10:02:29;;;;;;;;;;;12.00;99.90;;;;;;4989412;28;19930;-73
2022/05/01 10:05:04;;;;;;;;;;;12.10;99.90;;;;;;5007086;28;19925;-73
2022/05/01 10:07:33;;;;;;;;;;;12.20;99.90;;;;;;4988613;28;19926;-73
2022/05/01 10:10:00;;;;;;;;;;;12.20;99.90;;;;;;5004513;28;19926;-73
2022/05/01 10:12:34;;;;;;;;;;;12.50;99.90;;;;;;5006284;28;20390;-73
2022/05/01 10:15:06;;;;;;;;;;;12.70;99.90;;;;;;5006713;28;19929;-73
2022/05/01 10:17:38;;;;;;;;;;;13.00;99.90;;;;;;5008023;28;20320;-73
2022/05/01 10:20:10;;;;;;;;;;;13.20;99.90;;;;;;5006626;28;20016;-73
2022/05/01 10:22:42;;;;;;;;;;;13.30;99.90;;;;;;5003970;28;19937;-73
2022/05/01 10:25:16;;;;;;;;;;;13.40;99.90;;;;;;5000372;28;19930;-73
2022/05/01 10:28:08;;;;;;;;;;;13.20;99.90;;;;;;5009068;28;19929;-73
2022/05/01 10:33:50;;;;;;;;;;;13.20;99.90;;;;;;5004116;28;19925;-73
2022/05/01 10:36:21;;;;;;;;;;;13.30;99.90;;;;;;5004556;28;19937;-73
2022/05/01 10:39:17;;;;;;;;;;;13.30;99.90;;;;;;4996714;28;19937;-73
2022/05/01 10:41:45;;;;;;;;;;;13.10;99.90;;;;;;4987835;28;20017;-73
2022/05/01 10:44:30;;;;;;;;;;;13.10;99.90;;;;;;5004439;28;19929;-73
2022/05/01 10:47:16;;;;;;;;;;;13.00;99.90;;;;;;5022474;28;19930;-73
2022/05/01 10:49:48;;;;;;;;;;;13.00;99.90;;;;;;4989275;28;19933;-74
2022/05/01 10:52:20;;;;;;;;;;;13.10;99.90;;;;;;5004426;28;19925;-72
2022/05/01 10:55:01;;;;;;;;;;;13.30;99.90;;;;;;5006616;28;19930;-76
2022/05/01 10:57:33;;;;;;;;;;;13.60;99.90;;;;;;5006664;28;19926;-73
2022/05/01 11:00:10;;;;;;;;;;;13.80;99.90;;;;;;5009557;28;19925;-73
2022/05/01 11:02:46;;;;;;;;;;;14.00;99.90;;;;;;5006487;28;20378;-73
2022/05/01 11:05:36;;;;;;;;;;;14.20;99.90;;;;;;5007037;28;19926;-73
2022/05/01 11:08:23;;;;;;;;;;;14.30;99.90;;;;;;5005008;28;19933;-73
2022/05/01 11:10:51;;;;;;;;;;;14.40;99.90;;;;;;4984810;28;19972;-73
2022/05/01 11:13:31;;;;;;;;;;;14.40;99.90;;;;;;4984160;28;19937;-77
2022/05/01 11:16:03;;;;;;;;;;;14.60;99.90;;;;;;5004757;28;19926;-73
2022/05/01 11:18:34;;;;;;;;;;;14.80;99.90;;;;;;5004367;28;20397;-71
2022/05/01 11:21:24;;;;;;;;;;;14.70;99.90;;;;;;4999759;28;19925;-72
2022/05/01 11:24:01;;;;;;;;;;;14.70;99.90;;;;;;5001667;28;19934;-72
2022/05/01 11:26:33;;;;;;;;;;;14.80;99.90;;;;;;4989734;28;20457;-71
2022/05/01 11:29:09;;;;;;;;;;;14.90;99.90;;;;;;4996019;28;19926;-71
2022/05/01 11:31:39;;;;;;;;;;;14.90;99.90;;;;;;5006066;28;19948;-71
2022/05/01 11:34:24;;;;;;;;;;;14.90;99.90;;;;;;4979698;28;19961;-72
2022/05/01 11:37:04;;;;;;;;;;;14.80;99.90;;;;;;4999266;28;20390;-71
2022/05/01 11:39:43;;;;;;;;;;;14.80;99.90;;;;;;5007399;28;19988;-72
2022/05/01 11:42:25;;;;;;;;;;;14.90;99.90;;;;;;4983613;28;19936;-71
2022/05/01 11:44:57;;;;;;;;;;;14.90;99.90;;;;;;5003504;28;19930;-71
2022/05/01 11:47:30;;;;;;;;;;;14.90;99.90;;;;;;5005835;28;19936;-71
2022/05/01 11:49:57;;;;;;;;;;;14.90;99.90;;;;;;5008082;28;20385;-71
2022/05/01 11:52:24;;;;;;;;;;;15.10;99.90;;;;;;5004534;28;20348;-71
2022/05/01 11:54:57;;;;;;;;;;;15.10;99.90;;;;;;5007711;28;19932;-71
2022/05/01 12:03:11;;;;;;;;;;;15.40;99.90;;;;;;5005992;28;19929;-71
2022/05/01 12:05:45;;;;;;;;;;;15.40;99.90;;;;;;4999778;28;20357;-71
2022/05/01 12:08:20;;;;;;;;;;;15.50;99.90;;;;;;4995625;28;19926;-71
2022/05/01 12:10:52;;;;;;;;;;;15.60;99.90;;;;;;5003033;28;20383;-70
2022/05/01 12:13:27;;;;;;;;;;;15.90;99.90;;;;;;5000481;28;19926;-74
2022/05/01 12:15:59;;;;;;;;;;;16.10;99.90;;;;;;4997549;28;19926;-71
2022/05/01 12:18:31;;;;;;;;;;;16.10;99.90;;;;;;5010888;28;19932;-71
2022/05/01 12:20:57;;;;;;;;;;;15.90;99.90;;;;;;5003692;28;20525;-71
2022/05/01 12:23:26;;;;;;;;;;;15.80;99.90;;;;;;5005876;28;19925;-71
2022/05/01 12:25:59;;;;;;;;;;;15.70;99.90;;;;;;5004468;28;20446;-71
2022/05/01 12:28:31;;;;;;;;;;;15.60;99.90;;;;;;4994774;28;19929;-71
2022/05/01 12:31:06;;;;;;;;;;;15.60;99.90;;;;;;5010393;28;19932;-71
2022/05/01 12:33:33;;;;;;;;;;;15.50;99.90;;;;;;5007343;28;19930;-71
2022/05/01 12:36:05;;;;;;;;;;;15.40;99.90;;;;;;5003256;28;20309;-71
2022/05/01 12:38:36;;;;;;;;;;;15.40;99.90;;;;;;4997708;28;19926;-71
2022/05/01 12:44:02;;;;;;;;;;;15.50;99.90;;;;;;5003495;28;19940;-71
2022/05/01 12:46:33;;;;;;;;;;;15.60;99.90;;;;;;5007119;28;19933;-71
2022/05/01 12:49:05;;;;;;;;;;;15.70;99.90;;;;;;5005942;28;19944;-71
2022/05/01 12:51:41;;;;;;;;;;;15.70;99.90;;;;;;4997510;28;20393;-71
2022/05/01 12:54:18;;;;;;;;;;;15.80;99.90;;;;;;4996506;28;19926;-70
2022/05/01 12:56:50;;;;;;;;;;;15.90;99.90;;;;;;5002818;28;19929;-70
2022/05/01 12:59:23;;;;;;;;;;;16.00;99.90;;;;;;5001350;28;19930;-70
2022/05/01 13:01:56;;;;;;;;;;;16.00;99.90;;;;;;5003700;28;19949;-71
2022/05/01 13:04:29;;;;;;;;;;;15.90;99.90;;;;;;5004031;28;20329;-70
2022/05/01 13:07:00;;;;;;;;;;;16.00;99.90;;;;;;4999293;28;19933;-70
2022/05/01 13:09:27;;;;;;;;;;;16.10;99.90;;;;;;5004675;28;19933;-71
2022/05/01 13:12:00;;;;;;;;;;;16.10;99.90;;;;;;4997961;28;20496;-71
2022/05/01 13:14:33;;;;;;;;;;;16.20;99.90;;;;;;5002439;28;19937;-70
2022/05/01 13:17:12;;;;;;;;;;;16.20;99.90;;;;;;5001545;28;20156;-70
2022/05/01 13:19:44;;;;;;;;;;;16.10;99.90;;;;;;4998624;28;20016;-71
2022/05/01 13:22:11;;;;;;;;;;;16.10;99.90;;;;;;5002385;28;19925;-71
2022/05/01 13:24:44;;;;;;;;;;;16.20;99.90;;;;;;5000936;28;19926;-70
2022/05/01 13:27:16;;;;;;;;;;;16.20;99.90;;;;;;5005932;28;19925;-70
2022/05/01 13:29:48;;;;;;;;;;;16.40;99.90;;;;;;4993345;28;20394;-71
2022/05/01 13:32:20;;;;;;;;;;;16.40;99.90;;;;;;5003119;28;19936;-71
2022/05/01 13:34:52;;;;;;;;;;;16.50;99.90;;;;;;5004313;28;19936;-70
2022/05/01 13:37:23;;;;;;;;;;;16.50;99.90;;;;;;5001064;28;19925;-70
2022/05/01 13:45:35;;;;;;;;;;;16.40;99.90;;;;;;5001496;28;20362;-71
2022/05/01 13:48:07;;;;;;;;;;;16.50;99.90;;;;;;4996311;28;19926;-70
2022/05/01 13:50:35;;;;;;;;;;;16.40;99.90;;;;;;5005034;28;19937;-71
2022/05/01 13:53:12;;;;;;;;;;;16.50;99.90;;;;;;5000509;28;20016;-71
2022/05/01 13:55:44;;;;;;;;;;;16.60;99.90;;;;;;5005762;28;19932;-70
2022/05/01 13:58:16;;;;;;;;;;;16.60;99.90;;;;;;5008467;28;19933;-71
2022/05/01 14:00:47;;;;;;;;;;;16.60;99.90;;;;;;4997383;28;19932;-71
2022/05/01 14:03:19;;;;;;;;;;;16.70;99.90;;;;;;5004314;28;19932;-70
2022/05/01 14:05:50;;;;;;;;;;;16.70;99.90;;;;;;4997368;28;19937;-70
2022/05/01 14:08:22;;;;;;;;;;;16.70;99.90;;;;;;5000518;28;19930;-71
2022/05/01 14:10:54;;;;;;;;;;;17.00;99.90;;;;;;4996922;28;19930;-70
2022/05/01 14:13:26;;;;;;;;;;;17.50;99.90;;;;;;5001389;28;19930;-71
2022/05/01 14:15:58;;;;;;;;;;;17.80;99.90;;;;;;4997120;28;20386;-71
2022/05/01 14:18:30;;;;;;;;;;;17.80;99.90;;;;;;4999981;28;20398;-71
2022/05/01 14:21:03;;;;;;;;;;;17.80;99.90;;;;;;4997044;28;19936;-71
2022/05/01 14:23:39;;;;;;;;;;;17.70;99.90;;;;;;5003060;28;20329;-70
2022/05/01 14:26:11;;;;;;;;;;;17.60;99.90;;;;;;5001011;28;19945;-71
2022/05/01 14:28:42;;;;;;;;;;;17.50;99.90;;;;;;4996571;28;20085;-71
2022/05/01 14:31:37;;;;;;;;;;;17.50;99.90;;;;;;5002735;28;19936;-70
2022/05/01 14:34:09;;;;;;;;;;;17.90;99.90;;;;;;4999649;28;19934;-70
2022/05/01 14:36:43;;;;;;;;;;;18.70;99.90;;;;;;5004140;28;19926;-70
2022/05/01 14:39:15;;;;;;;;;;;19.20;98.50;;;;;;5003868;28;19925;-71
2022/05/01 14:41:50;;;;;;;;;;;19.80;98.20;;;;;;5000572;28;19933;-71
2022/05/01 14:44:30;;;;;;;;;;;20.00;96.90;;;;;;5005784;28;19929;-71
2022/05/01 14:47:06;;;;;;;;;;;20.20;95.30;;;;;;5004750;28;19930;-70
2022/05/01 14:49:38;;;;;;;;;;;19.90;95.70;;;;;;5002294;28;20019;-71
2022/05/01 14:52:10;;;;;;;;;;;19.70;96.00;;;;;;4998672;28;19934;-71
2022/05/01 14:54:43;;;;;;;;;;;19.40;95.80;;;;;;5000960;28;19925;-71
2022/05/01 14:57:19;;;;;;;;;;;19.20;95.70;;;;;;5001415;28;19933;-71
2022/05/01 15:08:35;;;;;;;;;;;18.80;96.00;;;;;;5002644;28;19930;-71
2022/05/01 15:11:07;;;;;;;;;;;18.60;95.30;;;;;;4991332;28;20294;-71
2022/05/01 15:13:39;;;;;;;;;;;18.30;95.20;;;;;;5003485;28;19926;-71
2022/05/01 15:16:16;;;;;;;;;;;18.20;96.10;;;;;;5003024;28;19933;-71
2022/05/01 15:18:51;;;;;;;;;;;18.20;97.30;;;;;;5000883;28;19930;-71
2022/05/01 15:21:23;;;;;;;;;;;18.00;96.50;;;;;;5001848;28;19933;-71
2022/05/01 15:23:57;;;;;;;;;;;18.00;97.50;;;;;;4997271;28;19926;-71
2022/05/01 15:26:30;;;;;;;;;;;17.90;97.60;;;;;;5005271;28;19926;-70
2022/05/01 15:29:03;;;;;;;;;;;17.80;97.50;;;;;;5001542;28;20405;-71
2022/05/01 15:31:37;;;;;;;;;;;17.80;97.70;;;;;;4994066;28;19930;-71
2022/05/01 15:34:13;;;;;;;;;;;17.90;97.60;;;;;;5004913;28;19943;-71
2022/05/01 15:36:47;;;;;;;;;;;17.90;97.60;;;;;;4996625;28;19965;-70
2022/05/01 15:39:20;;;;;;;;;;;17.80;97.70;;;;;;5005673;28;19933;-71
2022/05/01 15:41:50;;;;;;;;;;;17.70;97.30;;;;;;4999781;28;20013;-71
2022/05/01 15:44:17;;;;;;;;;;;17.60;97.20;;;;;;5007436;28;19929;-71
2022/05/01 15:46:55;;;;;;;;;;;17.50;97.30;;;;;;5002367;28;19930;-71